Time;durP1;ratioP1;P1;durP2;ratioP2;P2;SDS_P1;SDS_P2;PMS_P1;PMS_P2;Temp;Humidity;BMP_temperature;BMP_pressure;BME280_temperature;BME280_humidity;BME280_pressure;Samples;Min_cycle;Max_cycle;Signal;HPM_P1;HPM_P2
2022/07/05 00:04:13;;;;;;;2.00;0.85;;;;;;;21.41;40.83;100466.59;10346855;28;20130;-69
2022/07/05 00:09:14;;;;;;;1.52;0.63;;;;;;;21.37;40.56;100470.69;10350603;28;20124;-69
2022/07/05 00:14:16;;;;;;;2.20;0.40;;;;;;;21.22;41.08;100467.19;10347524;28;20140;-69
2022/07/05 00:19:17;;;;;;;2.38;0.40;;;;;;;21.19;41.23;100457.56;10346562;28;20137;-69
2022/07/05 00:24:18;;;;;;;0.93;0.50;;;;;;;21.13;41.11;100461.84;10356717;28;20124;-69
2022/07/05 00:29:20;;;;;;;1.83;0.40;;;;;;;21.18;40.73;100467.56;10344307;28;20072;-68
2022/07/05 00:34:21;;;;;;;1.08;0.30;;;;;;;21.10;41.35;100461.41;10341030;28;20559;-68
2022/07/05 00:39:23;;;;;;;1.55;0.63;;;;;;;21.14;41.10;100460.84;10346833;28;20107;-68
2022/07/05 00:44:34;;;;;;;1.00;0.55;;;;;;;21.04;40.82;100462.97;10346210;28;20092;-68
2022/07/05 00:49:37;;;;;;;0.75;0.45;;;;;;;20.94;41.41;100467.84;10343576;28;20075;-68
2022/07/05 00:54:39;;;;;;;1.77;0.55;;;;;;;20.84;42.21;100460.84;10345188;28;20060;-69
2022/07/05 00:59:41;;;;;;;2.15;0.60;;;;;;;20.73;41.94;100464.00;10347612;28;20429;-69
2022/07/05 01:04:42;;;;;;;1.30;0.35;;;;;;;20.72;41.83;100464.19;10348133;28;20107;-68
2022/07/05 01:09:44;;;;;;;3.17;0.40;;;;;;;20.83;41.54;100469.97;10346637;28;20626;-69
2022/07/05 01:14:47;;;;;;;1.48;0.40;;;;;;;20.75;42.22;100470.06;10355275;28;20061;-69
2022/07/05 01:19:50;;;;;;;2.33;0.67;;;;;;;20.81;41.65;100469.31;10359845;28;20049;-69
2022/07/05 01:24:52;;;;;;;3.72;0.90;;;;;;;20.62;42.59;100467.13;10349627;28;20197;-67
2022/07/05 01:29:53;;;;;;;1.05;0.40;;;;;;;20.47;42.59;100464.41;10349080;28;20630;-68
2022/07/05 01:34:55;;;;;;;1.00;0.43;;;;;;;20.59;42.03;100467.50;10345112;28;20157;-68
2022/07/05 01:39:58;;;;;;;2.10;0.57;;;;;;;20.18;42.85;100460.59;10341014;28;20824;-68
2022/07/05 01:44:59;;;;;;;1.73;0.70;;;;;;;20.13;43.45;100461.13;10342690;28;20128;-68
2022/07/05 01:50:04;;;;;;;1.85;0.40;;;;;;;20.23;42.65;100451.94;10344133;28;20057;-69
2022/07/05 01:55:06;;;;;;;1.40;0.50;;;;;;;20.15;43.22;100455.56;10348439;28;20128;-68
2022/07/05 02:00:07;;;;;;;2.17;0.55;;;;;;;20.10;43.97;100458.81;10346336;28;20109;-68
2022/07/05 02:05:09;;;;;;;1.90;0.68;;;;;;;20.14;42.97;100462.81;10345909;28;20134;-68
2022/07/05 02:10:10;;;;;;;2.00;0.47;;;;;;;20.14;43.14;100452.00;10344065;28;20076;-68
2022/07/05 02:15:12;;;;;;;0.70;0.40;;;;;;;20.03;44.58;100452.44;10347050;28;20080;-68
2022/07/05 02:20:13;;;;;;;1.27;0.50;;;;;;;20.21;43.74;100464.81;10344667;28;20504;-68
2022/07/05 02:25:14;;;;;;;0.80;0.50;;;;;;;20.30;44.06;100458.31;10342010;28;20103;-67
2022/07/05 02:30:16;;;;;;;1.77;0.75;;;;;;;20.35;43.60;100455.06;10338494;28;20061;-68
2022/07/05 02:35:17;;;;;;;1.00;0.60;;;;;;;20.36;43.28;100452.16;10342488;28;20572;-68
2022/07/05 02:40:19;;;;;;;2.25;0.75;;;;;;;20.37;42.96;100459.25;10344192;28;20072;-70
2022/07/05 02:45:20;;;;;;;1.67;0.45;;;;;;;20.34;42.92;100470.41;10343443;28;20073;-69
2022/07/05 02:50:22;;;;;;;2.35;0.43;;;;;;;20.34;43.37;100474.97;10343611;28;20103;-68
2022/07/05 02:55:23;;;;;;;2.15;0.88;;;;;;;20.10;43.77;100464.22;10347248;28;20058;-68
2022/07/05 03:00:25;;;;;;;2.60;0.63;;;;;;;20.20;43.95;100476.63;10355082;28;20137;-69
2022/07/05 03:05:26;;;;;;;1.17;0.70;;;;;;;20.21;44.11;100471.03;10360230;28;20453;-69
2022/07/05 03:10:27;;;;;;;1.13;0.65;;;;;;;20.11;43.72;100471.28;10353717;28;20700;-69
2022/07/05 03:15:29;;;;;;;1.75;0.60;;;;;;;20.15;43.83;100479.88;10349621;28;20162;-66
2022/07/05 03:20:30;;;;;;;3.35;0.75;;;;;;;20.08;44.47;100465.41;10347971;28;20158;-69
2022/07/05 03:25:32;;;;;;;2.10;0.85;;;;;;;20.12;45.45;100489.19;10352014;28;20046;-67
2022/07/05 03:30:33;;;;;;;0.98;0.50;;;;;;;20.09;44.81;100492.25;10352124;28;20114;-68
2022/07/05 03:35:35;;;;;;;1.05;0.50;;;;;;;19.95;44.45;100493.88;10348035;28;20061;-69
2022/07/05 03:40:36;;;;;;;2.28;0.75;;;;;;;19.87;45.02;100495.78;10350225;28;20149;-68
2022/07/05 03:45:38;;;;;;;1.65;0.82;;;;;;;19.84;45.13;100499.66;10348479;28;20057;-68
2022/07/05 03:50:39;;;;;;;1.85;0.70;;;;;;;19.86;45.13;100499.47;10348546;28;20121;-68
2022/07/05 03:55:41;;;;;;;1.27;0.60;;;;;;;19.91;45.08;100486.31;10350776;28;20251;-68
2022/07/05 04:00:42;;;;;;;1.35;0.60;;;;;;;19.94;45.03;100494.88;10347251;28;20055;-68
2022/07/05 04:05:44;;;;;;;1.70;0.80;;;;;;;19.89;45.09;100499.13;10350383;28;20061;-69
2022/07/05 04:10:45;;;;;;;3.95;0.65;;;;;;;19.78;45.77;100503.91;10349221;28;20767;-69
2022/07/05 04:15:47;;;;;;;1.55;0.80;;;;;;;19.79;45.93;100510.16;10345450;28;20042;-69
2022/07/05 04:20:48;;;;;;;2.05;0.70;;;;;;;19.83;46.32;100499.84;10347863;28;20691;-69
2022/07/05 04:25:49;;;;;;;2.53;1.00;;;;;;;19.88;45.91;100498.28;10350482;28;20049;-69
2022/07/05 04:30:51;;;;;;;2.97;1.13;;;;;;;19.96;45.87;100505.50;10347662;28;20052;-69
2022/07/05 04:35:53;;;;;;;3.88;0.63;;;;;;;20.01;46.05;100507.66;10348919;28;20142;-68
2022/07/05 04:40:55;;;;;;;1.30;0.60;;;;;;;20.08;45.46;100514.88;10351657;28;20077;-69
2022/07/05 04:45:56;;;;;;;1.63;0.80;;;;;;;20.09;45.51;100513.84;10349673;28;20285;-68
2022/07/05 04:50:58;;;;;;;2.80;0.70;;;;;;;20.08;45.19;100516.75;10349274;28;20144;-70
2022/07/05 04:55:59;;;;;;;2.15;0.77;;;;;;;20.14;45.72;100530.34;10336560;28;20096;-69
2022/07/05 05:01:01;;;;;;;3.35;0.75;;;;;;;20.14;45.59;100524.13;10338149;28;20207;-68
2022/07/05 05:06:02;;;;;;;1.45;0.63;;;;;;;20.08;45.21;100527.53;10354618;28;20160;-68
2022/07/05 05:11:05;;;;;;;2.00;0.77;;;;;;;20.07;45.58;100534.81;10344436;28;20135;-68
2022/07/05 05:16:06;;;;;;;2.15;0.90;;;;;;;20.05;46.38;100536.84;10346900;28;20049;-69
2022/07/05 05:21:08;;;;;;;5.20;0.98;;;;;;;20.13;46.35;100544.91;10348698;28;20761;-69
2022/07/05 05:26:09;;;;;;;2.20;1.00;;;;;;;20.20;46.18;100550.44;10340079;28;20213;-69
2022/07/05 05:31:11;;;;;;;2.40;0.70;;;;;;;20.31;46.75;100551.88;10341818;28;20056;-69
2022/07/05 05:36:12;;;;;;;1.42;0.75;;;;;;;20.38;46.54;100558.25;10341602;28;20049;-69
2022/07/05 05:41:14;;;;;;;3.08;0.88;;;;;;;20.41;46.51;100547.06;10345652;28;20140;-69
2022/07/05 05:46:15;;;;;;;2.75;0.82;;;;;;;20.51;45.97;100562.19;10348709;28;20695;-69
2022/07/05 05:51:17;;;;;;;3.80;1.00;;;;;;;20.56;45.85;100562.50;10345517;28;20669;-71
2022/07/05 05:56:18;;;;;;;3.53;0.80;;;;;;;20.63;45.42;100561.59;10335312;28;20062;-69
2022/07/05 06:01:20;;;;;;;2.95;1.00;;;;;;;20.58;46.06;100564.00;10342147;28;20807;-69
2022/07/05 06:06:21;;;;;;;2.42;0.98;;;;;;;20.71;45.99;100566.13;10340138;28;20144;-68
2022/07/05 06:11:23;;;;;;;2.88;0.90;;;;;;;20.77;46.04;100570.78;10338690;28;20055;-69
2022/07/05 06:16:24;;;;;;;1.63;0.80;;;;;;;20.87;46.19;100575.97;10341596;28;20041;-69
2022/07/05 06:21:26;;;;;;;1.23;0.80;;;;;;;20.97;45.72;100583.81;10343406;28;20042;-70
2022/07/05 06:26:27;;;;;;;2.67;0.90;;;;;;;21.13;45.04;100578.22;10334007;28;20120;-70
2022/07/05 06:31:29;;;;;;;4.03;1.67;;;;;;;21.24;44.84;100585.06;10331133;28;20052;-70
2022/07/05 06:36:30;;;;;;;1.17;0.80;;;;;;;21.43;44.88;100585.53;10354735;28;20060;-70
2022/07/05 06:41:32;;;;;;;2.55;0.93;;;;;;;21.57;44.56;100590.13;10361841;28;20367;-71
2022/07/05 06:46:34;;;;;;;1.38;0.93;;;;;;;21.71;44.43;100591.16;10353274;28;20071;-71
2022/07/05 06:51:35;;;;;;;2.85;1.30;;;;;;;21.79;44.45;100593.75;10360240;28;20056;-71
2022/07/05 06:56:36;;;;;;;2.65;1.13;;;;;;;22.00;44.09;100592.97;10350901;28;20560;-70
2022/07/05 07:01:58;;;;;;;3.10;0.90;;;;;;;22.22;44.02;100585.72;10348515;28;20580;-71
2022/07/05 07:12:39;;;;;;;1.77;0.77;;;;;;;22.51;43.31;100591.25;10362296;28;20071;-71
2022/07/05 07:17:41;;;;;;;2.85;1.10;;;;;;;22.67;43.07;100601.00;10364830;28;21774;-72
2022/07/05 07:22:42;;;;;;;2.40;1.25;;;;;;;22.57;43.05;100585.88;10362465;28;20049;-71
2022/07/05 07:27:46;;;;;;;2.42;1.00;;;;;;;22.68;43.57;100605.41;10354974;28;20061;-70
2022/07/05 07:32:48;;;;;;;3.28;1.20;;;;;;;22.73;42.95;100606.50;10355447;28;20671;-73
2022/07/05 07:37:49;;;;;;;1.60;1.00;;;;;;;23.01;42.77;100605.66;10349503;28;20965;-69
2022/07/05 07:42:51;;;;;;;5.57;1.48;;;;;;;23.16;42.69;100605.59;10337438;28;20053;-70
2022/07/05 07:47:52;;;;;;;3.25;1.75;;;;;;;23.11;42.04;100614.34;10337130;28;20059;-70
2022/07/05 07:52:54;;;;;;;3.15;1.10;;;;;;;23.21;42.54;100614.00;10347173;28;20151;-71
2022/07/05 07:57:55;;;;;;;3.33;1.23;;;;;;;23.58;41.28;100613.81;10384866;28;20065;-71
2022/07/05 08:02:58;;;;;;;4.15;1.00;;;;;;;23.79;41.10;100619.13;10367835;28;20088;-71
2022/07/05 08:08:01;;;;;;;4.28;1.58;;;;;;;23.91;40.40;100607.72;10353293;28;20048;-72
2022/07/05 08:13:02;;;;;;;3.00;0.80;;;;;;;23.99;39.85;100602.97;10347496;28;20551;-72
2022/07/05 08:23:24;;;;;;;5.35;1.02;;;;;;;24.47;38.04;100583.00;10350504;28;20238;-72
2022/07/05 08:28:32;;;;;;;0.98;0.40;;;;;;;24.77;36.89;100581.78;10351760;28;20050;-70
2022/07/05 08:33:54;;;;;;;3.13;0.70;;;;;;;24.98;36.04;100589.75;10335497;28;20053;-69
2022/07/05 08:38:55;;;;;;;2.92;0.47;;;;;;;25.15;35.03;100581.97;10343081;28;20060;-71
2022/07/05 08:43:57;;;;;;;1.60;0.70;;;;;;;25.06;35.56;100589.53;10345042;28;20073;-70
2022/07/05 08:49:03;;;;;;;2.22;0.70;;;;;;;25.26;35.44;100577.75;10345430;28;20111;-71
2022/07/05 08:54:12;;;;;;;2.08;0.50;;;;;;;25.10;34.71;100581.78;10340227;28;20049;-72
2022/07/05 08:59:14;;;;;;;1.98;0.88;;;;;;;25.28;34.83;100581.13;10342393;28;20061;-73
2022/07/05 09:04:16;;;;;;;1.48;0.63;;;;;;;25.51;33.37;100577.94;10352810;28;20139;-70
2022/07/05 09:09:19;;;;;;;2.88;0.90;;;;;;;25.69;33.63;100577.25;10351345;28;20049;-71
2022/07/05 09:14:24;;;;;;;2.33;0.70;;;;;;;25.92;33.50;100581.34;10354807;28;20049;-71
2022/07/05 09:19:31;;;;;;;2.67;0.70;;;;;;;26.43;32.80;100576.88;10350607;28;20053;-70
2022/07/05 09:24:42;;;;;;;2.63;0.80;;;;;;;26.18;32.64;100569.50;10347729;28;20168;-71
2022/07/05 09:29:57;;;;;;;3.53;0.70;;;;;;;26.29;33.12;100567.97;10344611;28;20046;-71
2022/07/05 09:35:19;;;;;;;2.83;0.60;;;;;;;26.21;32.63;100568.22;10345529;28;20788;-74
2022/07/05 09:40:20;;;;;;;2.03;0.85;;;;;;;25.83;32.74;100563.56;10342960;28;20132;-72
2022/07/05 09:45:25;;;;;;;1.00;0.30;;;;;;;26.02;32.73;100557.19;10347739;28;20142;-70
2022/07/05 09:50:34;;;;;;;2.80;0.80;;;;;;;26.80;31.15;100561.50;10349909;28;20045;-73
2022/07/05 09:56:02;;;;;;;3.42;0.30;;;;;;;26.90;30.48;100562.88;10350017;28;20049;-72
2022/07/05 10:01:28;;;;;;;0.52;0.28;;;;;;;26.75;31.10;100566.81;10337146;28;20852;-72
2022/07/05 10:06:32;;;;;;;2.03;0.32;;;;;;;27.25;30.02;100570.53;10339663;28;20064;-73
2022/07/05 10:11:37;;;;;;;1.10;0.52;;;;;;;27.11;29.30;100570.69;10337454;28;20375;-70
2022/07/05 10:16:38;;;;;;;2.60;0.50;;;;;;;27.10;30.27;100565.44;10337404;28;20259;-71
2022/07/05 10:21:41;;;;;;;2.70;0.50;;;;;;;27.31;29.06;100562.25;10345068;28;20135;-72
2022/07/05 10:27:06;;;;;;;2.47;0.67;;;;;;;27.14;29.84;100555.72;10341885;28;20060;-71
2022/07/05 10:32:11;;;;;;;2.97;0.40;;;;;;;27.55;28.41;100564.34;10338133;28;20085;-71
2022/07/05 10:37:13;;;;;;;4.15;0.50;;;;;;;27.99;28.45;100559.63;10339785;28;20168;-71
2022/07/05 10:42:15;;;;;;;0.97;0.30;;;;;;;28.40;27.10;100563.41;10338052;28;20669;-71
2022/07/05 10:47:18;;;;;;;1.70;0.40;;;;;;;27.79;27.59;100566.16;10339862;28;20054;-70
2022/07/05 10:52:24;;;;;;;0.90;0.30;;;;;;;28.09;27.54;100562.63;10337167;28;20121;-71
2022/07/05 10:57:26;;;;;;;1.42;0.60;;;;;;;28.47;26.42;100546.91;10337410;28;20090;-71
2022/07/05 11:02:28;;;;;;;2.35;0.60;;;;;;;28.75;26.95;100557.22;10340473;28;20190;-71
2022/07/05 11:07:57;;;;;;;2.17;0.43;;;;;;;28.66;27.55;100550.41;10336965;28;20053;-71
2022/07/05 11:12:59;;;;;;;1.98;0.40;;;;;;;28.85;27.97;100545.66;10331718;28;20151;-72
2022/07/05 11:18:16;;;;;;;0.90;0.50;;;;;;;28.80;26.91;100535.41;10334947;28;20057;-72
2022/07/05 11:23:27;;;;;;;1.65;0.28;;;;;;;28.38;27.96;100544.50;10330906;28;20198;-72
2022/07/05 11:28:45;;;;;;;1.15;0.43;;;;;;;28.86;26.40;100533.63;10347284;28;20092;-70
2022/07/05 11:33:48;;;;;;;1.80;0.47;;;;;;;29.27;26.61;100524.47;10345912;28;20195;-71
2022/07/05 11:39:12;;;;;;;2.92;0.47;;;;;;;29.15;26.72;100515.38;10344186;28;20049;-69
2022/07/05 11:44:15;;;;;;;1.10;0.63;;;;;;;29.05;27.36;100515.16;10350565;28;20088;-71
2022/07/05 11:49:20;;;;;;;1.77;0.43;;;;;;;29.29;26.80;100515.16;10342051;28;20990;-72
2022/07/05 11:54:33;;;;;;;1.40;0.60;;;;;;;28.51;26.38;100518.81;10338244;28;20144;-71
2022/07/05 11:59:35;;;;;;;1.83;0.68;;;;;;;28.25;27.47;100511.84;10348556;28;20054;-69
2022/07/05 12:04:51;;;;;;;1.80;0.45;;;;;;;28.39;27.26;100509.75;10347703;28;20186;-70
2022/07/05 12:15:15;;;;;;;1.55;0.63;;;;;;;27.95;27.75;100500.91;10346001;28;20151;-71
2022/07/05 12:20:24;;;;;;;2.20;0.80;;;;;;;27.99;27.62;100493.97;10341018;28;20091;-70
2022/07/05 12:25:27;;;;;;;0.95;0.40;;;;;;;28.24;26.70;100498.41;10346734;28;20072;-72
2022/07/05 12:30:29;;;;;;;1.27;0.50;;;;;;;28.45;27.58;100491.53;10342414;28;20122;-71
2022/07/05 12:35:45;;;;;;;1.63;0.50;;;;;;;28.09;27.11;100486.03;10350872;28;20745;-71
2022/07/05 12:40:59;;;;;;;2.00;0.50;;;;;;;28.44;27.24;100481.69;10343381;28;20524;-71
2022/07/05 12:46:03;;;;;;;1.67;0.50;;;;;;;28.50;26.68;100497.97;10341398;28;20045;-70
2022/07/05 12:51:06;;;;;;;1.88;0.60;;;;;;;28.73;25.15;100480.78;10335136;28;20164;-70
2022/07/05 13:02:08;;;;;;;1.00;0.57;;;;;;;28.92;25.77;100475.97;10353335;28;20971;-71
2022/07/05 13:07:09;;;;;;;1.80;0.70;;;;;;;29.02;24.53;100471.78;10353808;28;20091;-71
2022/07/05 13:12:30;;;;;;;2.05;0.77;;;;;;;28.86;24.74;100479.69;10343621;28;20045;-71
2022/07/05 13:17:31;;;;;;;2.00;0.63;;;;;;;28.61;24.06;100479.09;10341648;28;20205;-70
2022/07/05 13:22:33;;;;;;;1.80;0.50;;;;;;;28.63;24.95;100468.72;10351157;28;20144;-73
2022/07/05 13:27:34;;;;;;;0.97;0.70;;;;;;;28.78;24.71;100474.56;10342031;28;20045;-71
2022/07/05 13:32:36;;;;;;;1.67;0.50;;;;;;;29.10;24.89;100475.00;10349825;28;20097;-72
2022/07/05 13:37:38;;;;;;;1.17;0.40;;;;;;;29.21;24.54;100465.09;10349222;28;20680;-70
2022/07/05 13:42:39;;;;;;;0.80;0.60;;;;;;;29.34;24.25;100471.41;10346776;28;20134;-71
2022/07/05 13:47:41;;;;;;;1.00;0.38;;;;;;;29.24;23.89;100475.59;10338845;28;20057;-71
2022/07/05 13:52:42;;;;;;;0.80;0.60;;;;;;;28.91;23.93;100470.72;10343187;28;20049;-71
2022/07/05 13:57:45;;;;;;;1.57;0.60;;;;;;;29.08;24.17;100473.59;10340920;28;20116;-70
2022/07/05 14:02:47;;;;;;;1.30;0.70;;;;;;;28.73;24.14;100475.28;10345862;28;20219;-71
2022/07/05 14:07:48;;;;;;;1.63;0.68;;;;;;;28.55;25.38;100465.25;10341342;28;20056;-72
2022/07/05 14:12:50;;;;;;;2.70;0.40;;;;;;;28.59;25.30;100459.31;10342631;28;20053;-72
2022/07/05 14:17:51;;;;;;;1.47;0.57;;;;;;;28.54;25.82;100455.38;10341350;28;20057;-71
2022/07/05 14:22:53;;;;;;;2.47;0.80;;;;;;;28.34;25.71;100460.34;10340347;28;20949;-71
2022/07/05 14:27:54;;;;;;;1.77;0.68;;;;;;;28.28;25.79;100456.66;10340675;28;20050;-70
2022/07/05 14:32:55;;;;;;;1.00;0.40;;;;;;;28.21;26.24;100462.25;10339539;28;20132;-72
2022/07/05 14:37:58;;;;;;;2.35;0.80;;;;;;;28.19;26.65;100458.06;10340408;28;20409;-72
2022/07/05 14:43:00;;;;;;;3.47;0.80;;;;;;;28.31;26.58;100455.34;10343629;28;20797;-70
2022/07/05 14:48:02;;;;;;;2.08;0.60;;;;;;;28.34;27.10;100446.66;10341176;28;20152;-71
2022/07/05 14:53:07;;;;;;;0.87;0.60;;;;;;;28.36;26.76;100448.09;10343640;28;20049;-70
2022/07/05 14:58:09;;;;;;;2.50;0.73;;;;;;;28.19;27.08;100447.97;10352138;28;20041;-72
2022/07/05 15:03:11;;;;;;;1.15;0.57;;;;;;;28.43;27.65;100447.97;10349763;28;20063;-71
2022/07/05 15:08:12;;;;;;;1.48;0.93;;;;;;;28.69;27.64;100446.72;10345904;28;20071;-72
2022/07/05 15:13:14;;;;;;;2.20;1.13;;;;;;;28.60;27.70;100441.81;10354602;28;20675;-72
2022/07/05 15:18:16;;;;;;;;;;;;;;;28.45;28.69;100445.84;10356618;28;20140;-72
2022/07/05 15:23:17;;;;;;;1.90;0.90;;;;;;;28.31;28.32;100428.81;10352001;28;19932;-71
2022/07/05 15:28:21;;;;;;;2.08;1.00;;;;;;;28.12;28.64;100441.78;10343253;28;20098;-72
2022/07/05 15:33:28;;;;;;;1.10;0.80;;;;;;;28.12;27.84;100441.78;10336358;28;20532;-73
2022/07/05 15:38:31;;;;;;;1.83;0.82;;;;;;;28.22;28.04;100435.69;10347685;28;20067;-73
2022/07/05 15:43:32;;;;;;;;;;;;;;;28.21;28.19;100423.94;10336721;28;20147;-72
2022/07/05 15:48:34;;;;;;;1.98;0.70;;;;;;;27.87;29.14;100434.53;10345125;28;19941;-72
2022/07/05 15:53:35;;;;;;;3.47;1.50;;;;;;;27.94;29.41;100425.38;10335440;28;20041;-74
2022/07/05 15:58:39;;;;;;;2.85;0.88;;;;;;;27.79;29.48;100426.69;10349049;28;20060;-74
2022/07/05 16:03:41;;;;;;;2.33;1.00;;;;;;;27.60;29.79;100425.91;10350167;28;20049;-77
2022/07/05 16:08:42;;;;;;;3.55;1.20;;;;;;;27.41;30.28;100424.28;10350177;28;20211;-74
2022/07/05 16:13:44;;;;;;;3.80;1.20;;;;;;;27.30;30.11;100434.06;10359889;28;20203;-75
2022/07/05 16:18:47;;;;;;;2.55;1.27;;;;;;;27.33;30.39;100430.91;10346034;28;20052;-74
2022/07/05 16:23:50;;;;;;;2.67;1.30;;;;;;;27.30;30.71;100432.16;10342793;28;20064;-74
2022/07/05 16:28:53;;;;;;;1.92;1.30;;;;;;;27.35;30.66;100434.22;10347379;28;20068;-74
2022/07/05 16:33:54;;;;;;;2.47;1.00;;;;;;;27.27;30.65;100429.88;10347992;28;20235;-73
2022/07/05 16:38:56;;;;;;;2.28;1.25;;;;;;;27.40;30.70;100420.72;10342990;28;21267;-73
2022/07/05 16:44:06;;;;;;;1.75;1.38;;;;;;;27.44;30.39;100427.41;10345503;28;20033;-73
2022/07/05 16:49:08;;;;;;;2.10;1.45;;;;;;;27.29;30.97;100437.84;10343023;28;20866;-73
2022/07/05 16:54:09;;;;;;;2.55;1.20;;;;;;;27.24;30.88;100437.72;10336441;28;20133;-72
2022/07/05 16:59:11;;;;;;;2.85;1.08;;;;;;;27.14;31.09;100436.38;10348406;28;20058;-71
2022/07/05 17:04:12;;;;;;;1.73;1.02;;;;;;;27.04;31.42;100437.94;10375438;28;20112;-73
2022/07/05 17:09:27;;;;;;;2.17;1.17;;;;;;;26.87;31.33;100427.63;10364089;28;20041;-72
2022/07/05 17:14:29;;;;;;;2.70;1.05;;;;;;;26.83;31.59;100422.84;10376248;28;20076;-72
2022/07/05 17:19:44;;;;;;;3.95;1.35;;;;;;;26.58;31.03;100445.56;10369652;28;20089;-73
2022/07/05 17:24:45;;;;;;;2.35;1.00;;;;;;;26.52;31.34;100443.72;10347509;28;20045;-72
2022/07/05 17:29:47;;;;;;;1.60;1.15;;;;;;;26.40;31.50;100452.63;10362813;28;20053;-72
2022/07/05 17:34:49;;;;;;;1.30;1.20;;;;;;;26.24;31.47;100447.72;10378431;28;20061;-73
2022/07/05 17:39:59;;;;;;;2.33;1.10;;;;;;;26.15;31.48;100449.88;10358059;28;20131;-73
2022/07/05 17:45:04;;;;;;;1.35;0.93;;;;;;;26.14;31.20;100463.75;10364985;28;20835;-73
2022/07/05 17:50:06;;;;;;;2.38;1.20;;;;;;;26.00;31.06;100463.88;10367971;28;20077;-71
2022/07/05 17:55:29;;;;;;;1.98;1.00;;;;;;;25.83;31.64;100458.06;10334877;28;20103;-68
2022/07/05 18:00:32;;;;;;;2.00;1.60;;;;;;;25.87;31.52;100474.84;10328336;28;20131;-73
2022/07/05 18:05:33;;;;;;;2.72;1.38;;;;;;;25.74;31.67;100460.19;10350717;28;20234;-72
2022/07/05 18:10:35;;;;;;;1.73;1.08;;;;;;;25.66;31.87;100468.66;10342502;28;20240;-73
2022/07/05 18:15:37;;;;;;;1.40;1.02;;;;;;;25.62;31.98;100482.94;10341965;28;20118;-72
2022/07/05 18:20:42;;;;;;;3.90;1.23;;;;;;;25.43;31.96;100487.41;10363707;28;20149;-73
2022/07/05 18:25:44;;;;;;;2.03;0.90;;;;;;;25.33;32.43;100491.44;10354264;28;20088;-74
2022/07/05 18:30:45;;;;;;;2.70;1.02;;;;;;;25.15;32.35;100494.00;10377427;28;20053;-74
2022/07/05 18:35:47;;;;;;;1.70;0.93;;;;;;;25.11;32.52;100487.28;10396023;28;20056;-71
2022/07/05 18:40:48;;;;;;;3.25;1.27;;;;;;;25.09;32.61;100497.56;10339497;28;21002;-73
2022/07/05 18:45:50;;;;;;;3.80;1.40;;;;;;;25.01;32.61;100504.91;10336870;28;20060;-72
2022/07/05 18:50:51;;;;;;;2.10;0.93;;;;;;;24.93;33.01;100516.00;10344068;28;20057;-72
2022/07/05 18:55:53;;;;;;;2.63;0.90;;;;;;;24.84;33.39;100509.94;10347164;28;20206;-71
2022/07/05 19:01:14;;;;;;;2.05;1.00;;;;;;;24.73;33.15;100512.50;10331162;28;20064;-72
2022/07/05 19:16:56;;;;;;;2.63;1.10;;;;;;;24.44;33.69;100526.28;10331275;28;20819;-73
2022/07/05 19:21:57;;;;;;;2.45;0.75;;;;;;;24.29;32.77;100515.59;10317130;28;20517;-72
2022/07/05 19:26:59;;;;;;;0.77;0.50;;;;;;;24.25;33.09;100538.81;10329421;28;20144;-76
2022/07/05 19:32:02;;;;;;;5.53;3.13;;;;;;;24.21;36.12;100550.31;10334109;28;20614;-73
2022/07/05 19:37:04;;;;;;;3.17;2.47;;;;;;;24.15;35.41;100554.69;10339950;28;20596;-76
2022/07/05 19:42:05;;;;;;;3.67;2.75;;;;;;;24.04;34.87;100558.03;10333781;28;20640;-76
2022/07/05 19:47:07;;;;;;;1.70;1.00;;;;;;;23.98;34.85;100555.06;10350334;28;20129;-74
2022/07/05 19:52:09;;;;;;;1.70;1.00;;;;;;;23.88;34.56;100570.91;10333270;28;20636;-73
2022/07/05 19:57:10;;;;;;;1.10;0.93;;;;;;;23.80;34.82;100571.91;10350425;28;20056;-73
2022/07/05 20:02:11;;;;;;;1.88;0.93;;;;;;;23.77;34.59;100575.03;10342792;28;20403;-73
2022/07/05 20:07:14;;;;;;;2.05;0.80;;;;;;;23.82;34.34;100588.88;10318012;28;20085;-74
2022/07/05 20:12:15;;;;;;;2.25;0.90;;;;;;;23.72;34.65;100599.28;10339508;28;20052;-76
2022/07/05 20:17:17;;;;;;;2.60;1.35;;;;;;;23.68;34.78;100597.16;10325484;28;21472;-73
2022/07/05 20:22:18;;;;;;;1.00;0.70;;;;;;;23.62;35.19;100594.19;10343673;28;20049;-73
2022/07/05 20:27:20;;;;;;;2.20;0.80;;;;;;;23.61;34.87;100592.50;10335762;28;20806;-71
2022/07/05 20:32:21;;;;;;;2.65;1.00;;;;;;;23.53;35.29;100603.56;10334658;28;20125;-71
2022/07/05 20:37:23;;;;;;;2.95;1.02;;;;;;;23.51;35.23;100616.50;10330534;28;20664;-71
2022/07/05 20:42:24;;;;;;;2.35;0.95;;;;;;;23.45;35.64;100609.16;10336475;28;20262;-71
2022/07/05 20:47:26;;;;;;;2.20;1.85;;;;;;;23.39;35.63;100601.78;10337999;28;20069;-73
2022/07/05 20:52:27;;;;;;;2.05;0.90;;;;;;;23.32;35.60;100609.91;10342177;28;20075;-71
2022/07/05 20:57:28;;;;;;;4.60;0.93;;;;;;;23.24;36.02;100619.03;10338432;28;20699;-73
2022/07/05 21:02:30;;;;;;;1.75;1.15;;;;;;;23.19;36.11;100626.94;10343966;28;20250;-72
2022/07/05 21:07:31;;;;;;;4.43;1.20;;;;;;;23.10;36.26;100622.69;10349045;28;20718;-72
2022/07/05 21:12:33;;;;;;;2.38;1.10;;;;;;;23.06;36.01;100638.50;10343973;28;20078;-72
2022/07/05 21:17:38;;;;;;;2.05;1.00;;;;;;;23.04;36.15;100651.41;10338701;28;20140;-70
2022/07/05 21:22:41;;;;;;;2.53;0.80;;;;;;;23.00;36.22;100657.44;10337651;28;20640;-71
2022/07/05 21:27:43;;;;;;;3.80;1.65;;;;;;;22.93;36.19;100658.22;10341661;28;20073;-71
2022/07/05 21:32:44;;;;;;;1.48;0.80;;;;;;;22.87;36.42;100659.00;10346022;28;20198;-73
2022/07/05 21:37:45;;;;;;;2.08;0.95;;;;;;;22.67;36.20;100655.25;10341705;28;20066;-72
2022/07/05 21:42:47;;;;;;;2.67;0.93;;;;;;;22.59;36.93;100669.78;10347675;28;20099;-73
2022/07/05 21:47:48;;;;;;;1.77;1.10;;;;;;;22.58;37.07;100668.13;10343255;28;20505;-74
2022/07/05 21:52:50;;;;;;;2.10;1.25;;;;;;;22.56;36.64;100681.88;10342843;28;20049;-71
2022/07/05 21:57:52;;;;;;;1.27;0.80;;;;;;;22.49;37.29;100680.97;10344240;28;20055;-72
2022/07/05 22:08:13;;;;;;;2.30;0.95;;;;;;;22.39;37.76;100707.53;10341996;28;20081;-72
2022/07/05 22:13:14;;;;;;;1.23;1.00;;;;;;;22.29;38.16;100712.41;10339113;28;20120;-73
2022/07/05 22:18:16;;;;;;;1.30;1.10;;;;;;;22.24;38.07;100719.22;10343760;28;20488;-72
2022/07/05 22:23:17;;;;;;;6.68;2.03;;;;;;;22.18;38.23;100727.28;10346100;28;20200;-74
2022/07/05 22:28:19;;;;;;;2.72;1.15;;;;;;;22.12;38.49;100733.47;10344715;28;20610;-71
2022/07/05 22:33:21;;;;;;;3.50;1.48;;;;;;;22.05;38.84;100733.34;10342968;28;20046;-71
2022/07/05 22:38:22;;;;;;;2.03;1.10;;;;;;;21.98;39.25;100738.69;10345241;28;20730;-69
2022/07/05 22:43:25;;;;;;;1.97;1.20;;;;;;;21.99;39.29;100747.66;10338538;28;20128;-70
2022/07/05 22:48:26;;;;;;;1.10;0.95;;;;;;;21.88;39.29;100743.53;10346012;28;20500;-71
2022/07/05 22:53:28;;;;;;;1.65;0.88;;;;;;;21.86;39.47;100751.03;10345962;28;20124;-72
2022/07/05 22:58:30;;;;;;;2.45;1.00;;;;;;;21.81;39.53;100754.28;10345069;28;20128;-72
2022/07/05 23:03:31;;;;;;;1.27;0.82;;;;;;;21.69;39.81;100751.19;10342545;28;20050;-71
2022/07/05 23:08:36;;;;;;;2.47;0.95;;;;;;;21.70;40.08;100762.84;10342915;28;20081;-71
2022/07/05 23:13:38;;;;;;;3.17;1.00;;;;;;;21.64;39.93;100769.84;10345373;28;20056;-72
2022/07/05 23:18:39;;;;;;;2.55;1.40;;;;;;;21.59;40.37;100761.44;10352487;28;20100;-72
2022/07/05 23:24:55;;;;;;;2.83;1.45;;;;;;;21.52;40.34;100758.59;10349030;28;20328;-69
2022/07/05 23:29:02;;;;;;;1.42;1.20;;;;;;;21.47;40.63;100758.31;10353222;28;20128;-70
2022/07/05 23:34:03;;;;;;;2.47;1.17;;;;;;;21.39;40.78;100757.53;10351447;28;20060;-68
2022/07/05 23:39:05;;;;;;;2.33;1.00;;;;;;;21.38;41.05;100770.22;10353708;28;20060;-70
2022/07/05 23:44:06;;;;;;;2.67;1.40;;;;;;;21.23;41.72;100767.47;10357011;28;20069;-69
2022/07/05 23:49:08;;;;;;;3.22;1.52;;;;;;;21.25;40.99;100770.00;10362900;28;20049;-70
2022/07/05 23:54:09;;;;;;;2.38;1.00;;;;;;;21.15;42.13;100765.66;10352474;28;20060;-70